Time;durP1;ratioP1;P1;durP2;ratioP2;P2;SDS_P1;SDS_P2;PMS_P1;PMS_P2;Temp;Humidity;BMP_temperature;BMP_pressure;BME280_temperature;BME280_humidity;BME280_pressure;Samples;Min_cycle;Max_cycle;Signal;HPM_P1;HPM_P2
2023/10/19 00:00:50;;;;;;;28.75;22.17;;;7.80;99.90;;;;;;5090850;28;21855;-79
2023/10/19 00:03:17;;;;;;;26.50;21.58;;;7.80;99.90;;;;;;5090566;28;20478;-79
2023/10/19 00:05:47;;;;;;;27.50;22.40;;;8.30;99.90;;;;;;5094279;28;20115;-76
2023/10/19 00:08:23;;;;;;;24.65;21.65;;;7.80;99.90;;;;;;5091620;28;20048;-77
2023/10/19 00:11:03;;;;;;;25.00;22.38;;;7.80;99.90;;;;;;5098608;28;20031;-76
2023/10/19 00:13:29;;;;;;;28.38;22.80;;;7.80;99.90;;;;;;5088198;28;20123;-78
2023/10/19 00:15:59;;;;;;;34.33;24.13;;;7.70;99.90;;;;;;5087212;28;20055;-78
2023/10/19 00:18:25;;;;;;;33.88;25.98;;;7.80;99.90;;;;;;5096994;28;20443;-76
2023/10/19 00:23:29;;;;;;;38.03;26.95;;;7.70;99.90;;;;;;5090060;28;20055;-79
2023/10/19 00:25:56;;;;;;;32.33;25.48;;;7.70;99.90;;;;;;5107119;28;20071;-77
2023/10/19 00:28:22;;;;;;;39.27;25.77;;;7.70;99.90;;;;;;5094101;28;20036;-78
2023/10/19 00:30:53;;;;;;;33.88;26.98;;;7.70;99.90;;;;;;5097639;28;20070;-77
2023/10/19 00:33:26;;;;;;;34.35;27.98;;;7.70;99.90;;;;;;5095446;28;20051;-77
2023/10/19 00:35:58;;;;;;;34.42;27.20;;;7.90;99.90;;;;;;5080042;28;20270;-77
2023/10/19 00:38:30;;;;;;;34.90;28.05;;;7.70;99.90;;;;;;5093302;28;20044;-79
2023/10/19 00:41:00;;;;;;;36.33;26.80;;;7.60;99.90;;;;;;5064146;28;20052;-77
2023/10/19 00:43:28;;;;;;;32.60;26.83;;;7.60;99.90;;;;;;5084679;28;20473;-77
2023/10/19 00:45:54;;;;;;;35.47;29.63;;;7.60;99.90;;;;;;5094994;28;20135;-77
2023/10/19 00:48:26;;;;;;;37.58;28.88;;;7.70;99.90;;;;;;5087384;28;20135;-79
2023/10/19 00:50:55;;;;;;;36.67;28.95;;;7.60;99.90;;;;;;5069193;28;20070;-78
2023/10/19 00:53:22;;;;;;;40.20;30.17;;;7.60;99.90;;;;;;5070432;28;20077;-76
2023/10/19 00:55:48;;;;;;;37.88;28.77;;;7.60;99.90;;;;;;5096618;28;20087;-78
2023/10/19 00:58:17;;;;;;;38.15;30.65;;;7.60;99.90;;;;;;5084812;28;20105;-76
2023/10/19 01:00:44;;;;;;;37.97;29.20;;;7.60;99.90;;;;;;5090514;28;20040;-77
2023/10/19 01:03:16;;;;;;;37.33;29.70;;;7.50;99.90;;;;;;5088624;28;20051;-78
2023/10/19 01:05:47;;;;;;;39.20;30.35;;;7.50;99.90;;;;;;5089280;28;20048;-78
2023/10/19 01:08:31;;;;;;;39.67;31.40;;;7.50;99.90;;;;;;5097458;28;20075;-78
2023/10/19 01:10:59;;;;;;;37.03;29.60;;;7.50;99.90;;;;;;5069948;28;20139;-74
2023/10/19 01:13:28;;;;;;;38.92;29.67;;;7.60;99.90;;;;;;5098707;27;20048;-77
2023/10/19 01:15:55;;;;;;;44.35;32.53;;;7.30;99.90;;;;;;5085978;28;20663;-77
2023/10/19 01:18:22;;;;;;;40.73;31.93;;;7.50;99.90;;;;;;5085267;28;20390;-78
2023/10/19 01:20:50;;;;;;;41.08;30.58;;;7.50;99.90;;;;;;5084368;28;20050;-77
2023/10/19 01:23:21;;;;;;;37.85;30.08;;;7.50;99.90;;;;;;5097253;28;20456;-78
2023/10/19 01:31:22;;;;;;;39.00;31.42;;;7.50;99.90;;;;;;5103476;27;20055;-77
2023/10/19 01:33:49;;;;;;;41.30;31.75;;;7.50;99.90;;;;;;5099079;28;20165;-79
2023/10/19 01:36:24;;;;;;;43.70;32.70;;;7.50;99.90;;;;;;5076603;28;20463;-76
2023/10/19 01:39:00;;;;;;;41.47;32.25;;;7.50;99.90;;;;;;5092633;28;20055;-77
2023/10/19 01:41:30;;;;;;;45.05;33.15;;;7.50;99.90;;;;;;5100072;28;20429;-77
2023/10/19 01:44:04;;;;;;;43.00;32.03;;;7.50;99.90;;;;;;5089799;28;20044;-79
2023/10/19 01:46:36;;;;;;;44.20;33.10;;;7.50;99.90;;;;;;5096424;28;20044;-78
2023/10/19 01:49:04;;;;;;;48.13;35.42;;;7.50;99.90;;;;;;5081307;28;20453;-77
2023/10/19 01:51:32;;;;;;;42.15;31.48;;;7.50;99.90;;;;;;5088560;28;20043;-78
2023/10/19 01:54:00;;;;;;;45.70;33.58;;;7.50;99.90;;;;;;5088901;28;20072;-76
2023/10/19 01:56:26;;;;;;;44.35;32.08;;;7.50;99.90;;;;;;5077762;28;20386;-79
2023/10/19 01:58:54;;;;;;;41.47;32.50;;;7.60;99.90;;;;;;5075776;28;20049;-76
2023/10/19 02:01:20;;;;;;;44.35;33.75;;;7.50;99.90;;;;;;5067470;28;20127;-77
2023/10/19 02:03:58;;;;;;;45.28;34.17;;;8.20;99.90;;;;;;5085221;28;20044;-77
2023/10/19 02:06:36;;;;;;;46.63;35.45;;;7.50;99.90;;;;;;5085892;28;20596;-78
2023/10/19 02:09:25;;;;;;;46.20;32.80;;;7.50;99.90;;;;;;5110008;28;20052;-77
2023/10/19 02:11:57;;;;;;;42.63;33.42;;;7.50;99.90;;;;;;5098738;28;20048;-78
2023/10/19 02:14:25;;;;;;;49.45;35.95;;;7.50;99.90;;;;;;5085645;28;20055;-78
2023/10/19 02:16:59;;;;;;;43.90;33.28;;;7.70;99.90;;;;;;5097924;28;20127;-77
2023/10/19 02:19:29;;;;;;;41.55;31.83;;;7.60;99.90;;;;;;5105102;28;20132;-78
2023/10/19 02:22:11;;;;;;;43.40;33.70;;;7.50;99.90;;;;;;5065967;28;20048;-79
2023/10/19 02:24:38;;;;;;;50.35;35.60;;;7.50;99.90;;;;;;5092794;28;20048;-77
2023/10/19 02:27:04;;;;;;;48.55;35.03;;;7.50;99.90;;;;;;5093860;28;20048;-78
2023/10/19 02:29:31;;;;;;;51.08;35.70;;;6.90;99.90;;;;;;5087294;28;20530;-75
2023/10/19 02:32:03;;;;;;;50.83;36.08;;;8.70;99.90;;;;;;5107246;28;20386;-77
2023/10/19 02:34:29;;;;;;;54.95;37.65;;;7.50;99.90;;;;;;5111405;28;20494;-77
2023/10/19 02:36:54;;;;;;;54.40;36.15;;;7.50;99.90;;;;;;5088642;28;20102;-77
2023/10/19 02:39:25;;;;;;;53.17;38.22;;;7.50;99.90;;;;;;5090253;28;20036;-77
2023/10/19 02:41:51;;;;;;;59.60;38.97;;;7.50;99.90;;;;;;5093824;28;20044;-77
2023/10/19 02:46:53;;;;;;;55.05;38.17;;;7.50;99.90;;;;;;5095086;28;20064;-77
2023/10/19 02:49:20;;;;;;;50.08;36.30;;;7.50;99.90;;;;;;5077969;28;20043;-77
2023/10/19 02:51:51;;;;;;;52.33;36.33;;;7.50;99.90;;;;;;5099776;28;20062;-76
2023/10/19 02:54:23;;;;;;;53.63;35.88;;;7.40;99.90;;;;;;5109799;28;20044;-77
2023/10/19 02:56:53;;;;;;;62.85;39.72;;;7.50;99.90;;;;;;5091622;28;20040;-77
2023/10/19 02:59:23;;;;;;;50.67;36.65;;;7.50;99.90;;;;;;5096522;28;20097;-78
2023/10/19 03:01:51;;;;;;;63.10;41.03;;;7.50;99.90;;;;;;5099468;27;20070;-78
2023/10/19 03:04:18;;;;;;;59.13;39.28;;;7.50;99.90;;;;;;5100735;28;20099;-78
2023/10/19 03:06:47;;;;;;;54.33;37.22;;;7.50;99.90;;;;;;5094030;28;20044;-76
2023/10/19 03:09:13;;;;;;;56.50;38.45;;;7.50;99.90;;;;;;5102407;27;20048;-77
2023/10/19 03:11:44;;;;;;;70.57;43.05;;;7.40;99.90;;;;;;5089731;28;20040;-78
2023/10/19 03:14:11;;;;;;;56.17;37.30;;;7.40;99.90;;;;;;5088756;28;20041;-78
2023/10/19 03:16:41;;;;;;;65.55;39.03;;;7.50;99.90;;;;;;5092556;28;20036;-77
2023/10/19 03:19:07;;;;;;;62.95;39.53;;;7.50;99.90;;;;;;5071877;28;20044;-76
2023/10/19 03:21:41;;;;;;;61.47;40.20;;;7.50;99.90;;;;;;5093712;28;20062;-77
2023/10/19 03:24:12;;;;;;;66.60;41.15;;;7.50;99.90;;;;;;5096014;28;20485;-77
2023/10/19 03:26:39;;;;;;;65.22;39.88;;;7.50;99.90;;;;;;5112739;28;20064;-77
2023/10/19 03:29:12;;;;;;;68.45;39.63;;;7.50;99.90;;;;;;5078816;28;20055;-79
2023/10/19 03:31:43;;;;;;;57.97;38.08;;;7.50;99.90;;;;;;5077267;28;20076;-78
2023/10/19 03:34:13;;;;;;;49.53;35.33;;;7.50;99.90;;;;;;5092946;28;20090;-79
2023/10/19 03:36:40;;;;;;;57.80;37.13;;;7.50;99.90;;;;;;5105203;27;20042;-77
2023/10/19 03:39:12;;;;;;;51.42;33.58;;;7.50;99.90;;;;;;5096613;28;20036;-79
2023/10/19 03:41:41;;;;;;;53.40;35.10;;;7.50;99.90;;;;;;5090112;28;20097;-79
2023/10/19 03:44:13;;;;;;;58.80;37.72;;;7.40;99.90;;;;;;5095869;28;20058;-78
2023/10/19 03:46:52;;;;;;;55.75;38.05;;;7.50;99.90;;;;;;5104878;28;20064;-78
2023/10/19 03:49:19;;;;;;;51.35;34.92;;;7.50;99.90;;;;;;5113206;27;20074;-79
2023/10/19 03:52:19;;;;;;;47.42;32.40;;;7.50;99.90;;;;;;5095336;28;20730;-77
2023/10/19 03:54:43;;;;;;;53.13;36.10;;;8.10;99.90;;;;;;5096626;28;20044;-79
2023/10/19 03:57:22;;;;;;;60.78;38.20;;;7.50;99.90;;;;;;5107994;28;20048;-78
2023/10/19 03:59:50;;;;;;;;;;;8.30;99.90;;;;;;5099003;28;20150;-79
2023/10/19 04:02:16;;;;;;;54.20;36.13;;;7.60;99.90;;;;;;5075953;28;19955;-78
2023/10/19 04:04:52;;;;;;;54.95;37.35;;;7.70;99.90;;;;;;5094169;28;20044;-79
2023/10/19 04:07:21;;;;;;;65.93;40.05;;;7.50;99.90;;;;;;5083345;28;20047;-76
2023/10/19 04:12:35;;;;;;;57.08;37.05;;;7.60;99.90;;;;;;5089304;28;20089;-78
2023/10/19 04:15:18;;;;;;;60.92;38.88;;;7.70;99.90;;;;;;5084034;28;20047;-78
2023/10/19 04:17:48;;;;;;;60.47;37.90;;;7.60;99.90;;;;;;5091861;28;20044;-79
2023/10/19 04:22:48;;;;;;;62.33;39.38;;;7.60;99.90;;;;;;5099746;28;20041;-77
2023/10/19 04:25:16;;;;;;;56.83;37.22;;;8.20;99.90;;;;;;5093437;28;20351;-79
2023/10/19 04:27:45;;;;;;;69.03;39.38;;;8.10;99.90;;;;;;5092598;28;20426;-77
2023/10/19 04:30:24;;;;;;;87.13;44.38;;;7.60;99.90;;;;;;5073444;28;20051;-78
2023/10/19 04:32:50;;;;;;;;;;;7.60;99.90;;;;;;5106143;28;20059;-80
2023/10/19 04:35:22;;;;;;;47.15;33.42;;;7.60;99.90;;;;;;5085565;28;19924;-78
2023/10/19 04:37:50;;;;;;;55.88;34.85;;;7.60;99.90;;;;;;5097320;28;20040;-78
2023/10/19 04:40:16;;;;;;;51.05;30.25;;;7.70;99.90;;;;;;5106841;27;20062;-79
2023/10/19 04:42:42;;;;;;;48.83;32.75;;;7.70;99.90;;;;;;5089130;28;20059;-78
2023/10/19 04:45:08;;;;;;;57.22;34.58;;;7.70;99.90;;;;;;5091499;28;20048;-78
2023/10/19 04:47:37;;;;;;;45.88;31.30;;;7.70;99.90;;;;;;5106697;27;20067;-77
2023/10/19 04:50:04;;;;;;;66.60;37.15;;;7.60;99.90;;;;;;5093919;28;20062;-79
2023/10/19 04:52:30;;;;;;;58.05;35.47;;;7.60;99.90;;;;;;5086742;28;20035;-77
2023/10/19 04:54:55;;;;;;;56.45;34.35;;;7.60;99.90;;;;;;5094439;28;20036;-78
2023/10/19 04:57:21;;;;;;;67.68;37.38;;;7.70;99.90;;;;;;5089032;28;20094;-78
2023/10/19 04:59:47;;;;;;;63.05;35.58;;;8.20;99.90;;;;;;5084602;28;20494;-77
2023/10/19 05:02:13;;;;;;;60.92;35.13;;;7.70;99.90;;;;;;5089062;28;20044;-79
2023/10/19 05:04:40;;;;;;;55.85;33.25;;;7.70;99.90;;;;;;5100288;28;20442;-78
2023/10/19 05:07:09;;;;;;;49.33;32.00;;;8.20;99.90;;;;;;5090664;28;20040;-78
2023/10/19 05:09:38;;;;;;;57.35;32.88;;;8.10;99.90;;;;;;5089381;28;20343;-78
2023/10/19 05:12:08;;;;;;;46.83;30.35;;;7.70;99.90;;;;;;5103040;28;20049;-78
2023/10/19 05:14:38;;;;;;;44.78;29.42;;;7.70;99.90;;;;;;5091531;28;20052;-78
2023/10/19 05:17:07;;;;;;;43.88;28.75;;;7.80;99.90;;;;;;5093733;28;20402;-77
2023/10/19 05:19:38;;;;;;;49.97;31.27;;;7.80;99.90;;;;;;5090482;28;20044;-77
2023/10/19 05:22:07;;;;;;;59.22;31.77;;;7.70;99.90;;;;;;5108859;28;20067;-77
2023/10/19 05:24:33;;;;;;;50.75;30.63;;;8.00;99.90;;;;;;5086007;28;20045;-77
2023/10/19 05:27:04;;;;;;;45.75;29.45;;;7.30;99.90;;;;;;5072267;28;20099;-77
2023/10/19 05:29:35;;;;;;;53.78;30.02;;;7.80;99.90;;;;;;5074012;28;20036;-78
2023/10/19 05:32:03;;;;;;;49.10;28.98;;;7.80;99.90;;;;;;5095313;28;20481;-78
2023/10/19 05:34:29;;;;;;;34.43;22.93;;;8.10;99.90;;;;;;5093389;28;21729;-79
2023/10/19 05:36:58;;;;;;;41.28;26.48;;;8.00;99.90;;;;;;5088461;28;20380;-78
2023/10/19 05:39:27;;;;;;;41.88;26.98;;;7.80;99.90;;;;;;5085163;28;20048;-77
2023/10/19 05:41:54;;;;;;;38.67;24.73;;;7.80;99.90;;;;;;5107993;28;20036;-77
2023/10/19 05:44:20;;;;;;;36.15;24.50;;;8.50;99.90;;;;;;5085215;28;20589;-77
2023/10/19 05:46:46;;;;;;;37.60;23.92;;;7.80;99.90;;;;;;5086270;28;20093;-76
2023/10/19 05:49:13;;;;;;;29.15;19.00;;;7.80;99.90;;;;;;5085806;28;20048;-77
2023/10/19 05:51:39;;;;;;;34.55;21.25;;;8.50;99.90;;;;;;5070514;28;20138;-76
2023/10/19 05:54:05;;;;;;;25.48;18.45;;;8.20;99.90;;;;;;5087156;28;20050;-77
2023/10/19 05:56:36;;;;;;;29.27;19.63;;;7.80;99.90;;;;;;5081998;28;20052;-76
2023/10/19 05:59:06;;;;;;;30.17;20.27;;;7.90;99.90;;;;;;5088443;28;20123;-75
2023/10/19 06:01:32;;;;;;;38.33;22.27;;;7.80;99.90;;;;;;5088429;28;20055;-76
2023/10/19 06:03:58;;;;;;;21.50;16.35;;;7.80;99.90;;;;;;5076562;28;20044;-78
2023/10/19 06:06:24;;;;;;;31.85;20.55;;;7.80;99.90;;;;;;5094157;28;20185;-76
2023/10/19 06:08:53;;;;;;;33.95;21.00;;;7.80;99.90;;;;;;5081457;28;20173;-77
2023/10/19 06:11:27;;;;;;;41.22;23.35;;;7.80;99.90;;;;;;5095014;28;20122;-77
2023/10/19 06:13:53;;;;;;;29.05;18.73;;;7.80;99.90;;;;;;5098571;28;20067;-77
2023/10/19 06:16:21;;;;;;;26.05;18.92;;;7.80;99.90;;;;;;5083137;28;20039;-78
2023/10/19 06:18:46;;;;;;;26.92;15.60;;;7.90;99.90;;;;;;5088914;28;20490;-77
2023/10/19 06:21:12;;;;;;;25.92;18.10;;;7.90;99.90;;;;;;5110428;28;20081;-76
2023/10/19 06:23:37;;;;;;;22.45;16.98;;;7.90;99.90;;;;;;5078073;28;20045;-77
2023/10/19 06:26:13;;;;;;;25.90;18.48;;;7.90;99.90;;;;;;5082576;28;20037;-76
2023/10/19 06:28:40;;;;;;;26.40;18.35;;;7.80;99.90;;;;;;5080036;28;20048;-76
2023/10/19 06:31:09;;;;;;;24.55;17.45;;;7.80;99.90;;;;;;5106729;28;20044;-78
2023/10/19 06:33:35;;;;;;;27.65;18.58;;;7.80;99.90;;;;;;5122561;28;20050;-78
2023/10/19 06:36:03;;;;;;;21.85;16.10;;;8.70;99.90;;;;;;5116877;28;20427;-78
2023/10/19 06:38:31;;;;;;;21.70;16.23;;;7.80;99.90;;;;;;5083291;28;20048;-78
2023/10/19 06:40:57;;;;;;;25.75;17.85;;;7.80;99.90;;;;;;5095665;28;20120;-78
2023/10/19 06:43:27;;;;;;;32.22;21.33;;;7.80;99.90;;;;;;5082798;28;20082;-78
2023/10/19 06:45:55;;;;;;;37.30;21.52;;;7.80;99.90;;;;;;5097950;28;20521;-78
2023/10/19 06:48:20;;;;;;;28.05;18.63;;;7.90;99.90;;;;;;5093117;28;20059;-79
2023/10/19 06:50:46;;;;;;;39.30;22.35;;;7.90;99.90;;;;;;5097847;28;20048;-80
2023/10/19 06:53:12;;;;;;;19.63;14.30;;;7.90;99.90;;;;;;5079644;28;20158;-77
2023/10/19 06:55:38;;;;;;;23.73;15.88;;;7.90;99.90;;;;;;5107881;28;20047;-78
2023/10/19 06:58:04;;;;;;;19.63;14.55;;;7.90;99.90;;;;;;5092773;28;20044;-78
2023/10/19 07:00:30;;;;;;;37.05;19.23;;;7.90;99.90;;;;;;5084428;28;20048;-78
2023/10/19 07:03:02;;;;;;;25.60;16.42;;;7.90;99.90;;;;;;5077595;28;20063;-80
2023/10/19 07:05:32;;;;;;;24.33;15.75;;;7.90;99.90;;;;;;5087204;28;20043;-80
2023/10/19 07:07:59;;;;;;;20.00;14.80;;;7.90;99.90;;;;;;5100693;28;20048;-78
2023/10/19 07:10:27;;;;;;;17.42;12.57;;;7.90;99.90;;;;;;5092219;28;20036;-78
2023/10/19 07:12:54;;;;;;;26.48;14.52;;;7.90;99.90;;;;;;5098796;28;20044;-79
2023/10/19 07:15:22;;;;;;;16.80;12.07;;;7.90;99.90;;;;;;5110389;28;20069;-78
2023/10/19 07:17:56;;;;;;;23.92;16.13;;;7.90;99.90;;;;;;5102991;28;20409;-79
2023/10/19 07:20:25;;;;;;;20.95;14.80;;;7.90;99.90;;;;;;5088963;28;20398;-78
2023/10/19 07:22:52;;;;;;;17.17;14.00;;;8.40;99.90;;;;;;5078620;28;20120;-78
2023/10/19 07:25:25;;;;;;;18.40;13.82;;;8.40;99.90;;;;;;5110324;28;20048;-78
2023/10/19 07:27:55;;;;;;;15.05;12.10;;;7.90;99.90;;;;;;5093140;28;20048;-78
2023/10/19 07:30:21;;;;;;;16.25;12.95;;;7.90;99.90;;;;;;5095350;28;20472;-79
2023/10/19 07:32:53;;;;;;;16.10;12.55;;;7.90;99.90;;;;;;5092777;28;20097;-77
2023/10/19 07:35:20;;;;;;;16.88;12.32;;;7.90;99.90;;;;;;5097035;28;20105;-79
2023/10/19 07:37:48;;;;;;;23.95;15.48;;;7.90;99.90;;;;;;5092204;28;20051;-78
2023/10/19 07:40:14;;;;;;;15.02;11.75;;;7.90;99.90;;;;;;5080452;28;20036;-78
2023/10/19 07:42:42;;;;;;;17.77;12.25;;;7.90;99.90;;;;;;5098928;28;20435;-80
2023/10/19 07:45:11;;;;;;;13.02;10.77;;;7.90;99.90;;;;;;5116286;28;20048;-78
2023/10/19 07:47:44;;;;;;;18.20;13.13;;;7.90;99.90;;;;;;5090343;28;20039;-78
2023/10/19 07:50:17;;;;;;;17.98;12.45;;;7.90;99.90;;;;;;5087317;28;20389;-79
2023/10/19 07:52:47;;;;;;;15.38;11.77;;;7.90;99.90;;;;;;5094671;28;20040;-79
2023/10/19 07:55:14;;;;;;;15.45;12.02;;;7.90;99.90;;;;;;5095731;28;20051;-78
2023/10/19 07:57:42;;;;;;;18.75;13.60;;;7.90;99.90;;;;;;5091122;28;20142;-78
2023/10/19 08:00:09;;;;;;;;;;;7.90;99.90;;;;;;5103283;28;20080;-79
2023/10/19 08:02:40;;;;;;;17.90;13.48;;;7.90;99.90;;;;;;5087193;28;19920;-79
2023/10/19 08:05:11;;;;;;;17.77;12.38;;;7.90;99.90;;;;;;5108209;28;20400;-79
2023/10/19 08:07:42;;;;;;;15.75;12.30;;;7.90;99.90;;;;;;5110240;28;20143;-77
2023/10/19 08:10:12;;;;;;;17.58;13.60;;;7.90;99.90;;;;;;5083293;28;20082;-79
2023/10/19 08:12:42;;;;;;;18.77;14.50;;;7.90;99.90;;;;;;5101470;28;20040;-79
2023/10/19 08:15:15;;;;;;;18.52;13.30;;;7.90;99.90;;;;;;5094364;28;20546;-79
2023/10/19 08:17:43;;;;;;;20.65;14.90;;;7.90;99.90;;;;;;5100433;28;20040;-79
2023/10/19 08:20:24;;;;;;;22.95;16.13;;;7.90;99.90;;;;;;5080809;28;20051;-78
2023/10/19 08:22:51;;;;;;;20.73;15.15;;;7.90;99.90;;;;;;5083417;28;20044;-78
2023/10/19 08:25:17;;;;;;;19.65;15.20;;;7.90;99.90;;;;;;5082699;28;20044;-79
2023/10/19 08:27:45;;;;;;;26.15;17.63;;;8.00;99.90;;;;;;5104665;28;20070;-78
2023/10/19 08:30:17;;;;;;;17.02;13.45;;;8.00;99.90;;;;;;5102890;28;20110;-78
2023/10/19 08:32:47;;;;;;;17.90;15.00;;;8.00;99.90;;;;;;5095908;28;20045;-78
2023/10/19 08:35:24;;;;;;;25.42;18.02;;;8.00;99.90;;;;;;5109279;28;20100;-79
2023/10/19 08:37:50;;;;;;;23.38;17.33;;;8.40;99.90;;;;;;5065289;28;20040;-79
2023/10/19 08:40:17;;;;;;;25.95;17.73;;;8.00;99.90;;;;;;5088445;28;20131;-79
2023/10/19 08:42:46;;;;;;;19.98;14.90;;;7.60;99.90;;;;;;5111041;28;20044;-79
2023/10/19 08:45:13;;;;;;;16.00;13.48;;;8.00;99.90;;;;;;5083071;28;20044;-79
2023/10/19 08:48:00;;;;;;;16.10;13.15;;;8.00;99.90;;;;;;5094938;28;20052;-80
2023/10/19 08:50:30;;;;;;;15.55;13.75;;;8.00;99.90;;;;;;5101577;28;20040;-80
2023/10/19 08:52:58;;;;;;;24.17;17.48;;;8.00;99.90;;;;;;5108612;28;20044;-79
2023/10/19 08:55:24;;;;;;;22.15;15.38;;;8.70;99.90;;;;;;5098780;28;21515;-78
2023/10/19 08:57:50;;;;;;;21.05;15.20;;;8.00;99.90;;;;;;5101261;28;20047;-79
2023/10/19 09:00:18;;;;;;;22.13;17.10;;;8.00;99.90;;;;;;5093249;28;20040;-80
2023/10/19 09:02:45;;;;;;;17.52;12.63;;;8.00;99.90;;;;;;5105018;28;20048;-80
2023/10/19 09:05:19;;;;;;;25.52;18.25;;;8.10;99.90;;;;;;5101636;28;20054;-80
2023/10/19 09:07:55;;;;;;;20.15;16.13;;;8.10;99.90;;;;;;5099949;28;20051;-81
2023/10/19 09:10:26;;;;;;;23.02;17.48;;;9.20;99.90;;;;;;5092662;28;20036;-78
2023/10/19 09:13:03;;;;;;;30.05;20.13;;;8.10;99.90;;;;;;5110592;28;20093;-77
2023/10/19 09:15:35;;;;;;;21.77;17.05;;;8.10;99.90;;;;;;5091782;28;20048;-77
2023/10/19 09:18:21;;;;;;;30.42;19.63;;;8.10;99.90;;;;;;5092507;28;20044;-78
2023/10/19 09:20:53;;;;;;;21.52;16.48;;;8.10;99.90;;;;;;5093486;28;20055;-78
2023/10/19 09:23:32;;;;;;;22.90;16.85;;;8.10;99.90;;;;;;5106287;28;20130;-80
2023/10/19 09:26:07;;;;;;;19.02;15.40;;;8.30;99.90;;;;;;5105267;28;20084;-80
2023/10/19 09:28:37;;;;;;;25.92;18.02;;;8.10;99.90;;;;;;5071237;28;20086;-80
2023/10/19 09:31:04;;;;;;;23.95;17.17;;;8.10;99.90;;;;;;5070810;28;20072;-79
2023/10/19 09:33:33;;;;;;;20.17;15.25;;;8.10;99.90;;;;;;5103855;28;20048;-78
2023/10/19 09:36:01;;;;;;;24.63;18.65;;;8.10;99.90;;;;;;5087035;28;20123;-79
2023/10/19 09:38:27;;;;;;;20.08;15.27;;;8.10;99.90;;;;;;5117358;28;20396;-79
2023/10/19 09:40:54;;;;;;;24.13;17.40;;;8.20;99.90;;;;;;5091968;28;20075;-80
2023/10/19 09:43:44;;;;;;;24.02;14.70;;;8.80;99.90;;;;;;5102839;28;20053;-79
2023/10/19 09:46:36;;;;;;;24.85;18.33;;;8.20;99.90;;;;;;5103628;28;20044;-79
2023/10/19 09:49:02;;;;;;;22.90;16.77;;;8.60;99.90;;;;;;5107432;28;20048;-78
2023/10/19 09:51:29;;;;;;;24.67;18.08;;;8.20;99.90;;;;;;5088680;28;20051;-79
2023/10/19 09:54:14;;;;;;;28.48;19.05;;;8.80;99.90;;;;;;5099356;28;20048;-79
2023/10/19 09:56:46;;;;;;;30.00;20.73;;;8.30;99.90;;;;;;5103242;28;20106;-80
2023/10/19 09:59:35;;;;;;;29.83;19.52;;;9.60;99.90;;;;;;5101513;28;20068;-78
2023/10/19 10:02:15;;;;;;;30.15;20.58;;;7.90;99.90;;;;;;5083834;28;20049;-78
2023/10/19 10:04:42;;;;;;;23.23;17.90;;;8.50;99.90;;;;;;5086688;28;20505;-78
2023/10/19 10:07:09;;;;;;;25.58;18.08;;;8.30;99.90;;;;;;5101538;28;20044;-79
2023/10/19 10:09:46;;;;;;;34.50;18.92;;;8.40;99.90;;;;;;5078632;28;20052;-78
2023/10/19 10:12:23;;;;;;;28.13;19.95;;;8.40;99.90;;;;;;5082997;28;20040;-78
2023/10/19 10:15:08;;;;;;;30.90;20.52;;;8.40;99.90;;;;;;5101757;28;20440;-79
2023/10/19 10:17:37;;;;;;;25.60;18.38;;;8.40;99.90;;;;;;5085899;28;20161;-79
2023/10/19 10:20:15;;;;;;;37.90;24.05;;;8.40;99.90;;;;;;5095868;28;20048;-80
2023/10/19 10:23:01;;;;;;;25.88;15.35;;;8.40;99.90;;;;;;5104064;28;20085;-79
2023/10/19 10:25:30;;;;;;;32.17;17.33;;;8.40;99.90;;;;;;5100343;28;20492;-78
2023/10/19 10:27:59;;;;;;;26.75;18.70;;;8.40;99.90;;;;;;5101734;28;20048;-79
2023/10/19 10:30:28;;;;;;;29.50;20.10;;;7.90;99.90;;;;;;5098020;28;20044;-79
2023/10/19 10:32:59;;;;;;;33.50;20.67;;;9.10;99.90;;;;;;5070029;28;20055;-79
2023/10/19 10:35:38;;;;;;;32.15;20.42;;;8.50;99.90;;;;;;5076305;28;20125;-81
2023/10/19 10:38:09;;;;;;;31.50;20.55;;;8.50;99.90;;;;;;5078780;28;20048;-78
2023/10/19 10:40:45;;;;;;;26.40;18.58;;;8.60;99.90;;;;;;5085524;28;20486;-77
2023/10/19 10:43:15;;;;;;;25.77;17.77;;;8.60;99.90;;;;;;5100096;28;20044;-78
2023/10/19 10:45:44;;;;;;;30.80;20.70;;;8.40;99.90;;;;;;5082560;28;20036;-77
2023/10/19 10:48:17;;;;;;;29.30;20.17;;;8.90;99.90;;;;;;5077563;28;20457;-77
2023/10/19 10:50:45;;;;;;;30.17;19.70;;;8.50;99.90;;;;;;5101233;28;20173;-78
2023/10/19 10:53:12;;;;;;;40.28;25.60;;;8.40;99.90;;;;;;5091839;28;20072;-78
2023/10/19 10:55:41;;;;;;;36.00;23.77;;;8.60;99.90;;;;;;5081966;28;20115;-77
2023/10/19 10:58:07;;;;;;;30.60;21.60;;;8.60;99.90;;;;;;5077688;28;20176;-78
2023/10/19 11:00:34;;;;;;;34.17;23.48;;;8.60;99.90;;;;;;5091525;28;20059;-77
2023/10/19 11:03:01;;;;;;;40.72;25.73;;;9.00;99.90;;;;;;5097443;28;20083;-76
2023/10/19 11:05:27;;;;;;;44.58;26.20;;;8.60;99.90;;;;;;5089648;28;20044;-79
2023/10/19 11:08:22;;;;;;;30.80;23.67;;;8.60;99.90;;;;;;5094571;28;20052;-78
2023/10/19 11:10:48;;;;;;;33.05;23.70;;;8.60;99.90;;;;;;5082900;28;20048;-76
2023/10/19 11:13:16;;;;;;;34.10;23.13;;;8.60;99.90;;;;;;5097966;28;20055;-76
2023/10/19 11:15:53;;;;;;;25.85;19.92;;;8.60;99.90;;;;;;5106283;28;20078;-76
2023/10/19 11:18:28;;;;;;;28.92;21.73;;;8.60;99.90;;;;;;5098570;28;20040;-80
2023/10/19 11:20:55;;;;;;;25.48;20.98;;;8.60;99.90;;;;;;5105341;28;20048;-78
2023/10/19 11:23:37;;;;;;;25.77;19.02;;;8.50;99.90;;;;;;5096617;28;20366;-79
2023/10/19 11:26:05;;;;;;;29.38;19.70;;;8.60;99.90;;;;;;5087129;28;20080;-77
2023/10/19 11:28:32;;;;;;;21.05;16.88;;;8.50;99.90;;;;;;5089346;28;20044;-77
2023/10/19 11:31:15;;;;;;;29.60;19.37;;;8.50;99.90;;;;;;5090231;28;20044;-76
2023/10/19 11:33:45;;;;;;;36.38;23.85;;;8.60;99.90;;;;;;5094921;28;20300;-78
2023/10/19 11:36:12;;;;;;;36.30;23.80;;;8.60;99.90;;;;;;5118631;28;20048;-78
2023/10/19 11:38:45;;;;;;;38.83;24.35;;;8.60;99.90;;;;;;5093336;28;20119;-76
2023/10/19 11:41:13;;;;;;;26.80;20.58;;;8.60;99.90;;;;;;5097272;28;20040;-78
2023/10/19 11:43:44;;;;;;;29.03;23.87;;;9.10;99.90;;;;;;5098103;28;20040;-78
2023/10/19 11:46:25;;;;;;;28.13;22.88;;;8.60;99.90;;;;;;5094997;28;20047;-78
2023/10/19 11:48:50;;;;;;;40.50;26.40;;;8.60;99.90;;;;;;5079907;28;20434;-78
2023/10/19 11:51:16;;;;;;;32.67;23.40;;;8.60;99.90;;;;;;5082229;28;20043;-76
2023/10/19 11:53:43;;;;;;;32.72;25.48;;;8.60;99.90;;;;;;5106748;28;20044;-78
2023/10/19 11:56:13;;;;;;;33.80;25.48;;;9.10;99.90;;;;;;5083943;28;20049;-80
2023/10/19 11:58:41;;;;;;;32.90;24.17;;;8.60;99.90;;;;;;5060808;28;20505;-78
2023/10/19 12:01:11;;;;;;;29.73;23.55;;;8.30;99.90;;;;;;5094910;28;20155;-79
2023/10/19 12:03:40;;;;;;;29.63;26.17;;;8.50;99.90;;;;;;5095785;28;20437;-77
2023/10/19 12:06:21;;;;;;;41.33;30.77;;;8.50;99.90;;;;;;5083881;28;20106;-75
2023/10/19 12:08:50;;;;;;;39.65;32.10;;;8.50;99.90;;;;;;5061184;28;20080;-76
2023/10/19 12:11:18;;;;;;;38.53;30.88;;;8.40;99.90;;;;;;5089484;28;20123;-78
2023/10/19 12:13:46;;;;;;;38.05;31.27;;;8.80;99.90;;;;;;5097632;28;20126;-78
2023/10/19 12:16:15;;;;;;;36.40;28.25;;;9.50;99.90;;;;;;5093238;28;20076;-77
2023/10/19 12:18:42;;;;;;;32.67;26.52;;;8.50;99.90;;;;;;5090092;28;20458;-77
2023/10/19 12:21:11;;;;;;;37.05;27.77;;;8.50;99.90;;;;;;5102020;28;20071;-79
2023/10/19 12:23:39;;;;;;;33.42;26.85;;;8.50;99.90;;;;;;5062600;28;20051;-76
2023/10/19 12:26:10;;;;;;;30.67;20.70;;;9.00;99.90;;;;;;5074559;28;20041;-78
2023/10/19 12:28:40;;;;;;;30.50;21.85;;;8.50;99.90;;;;;;5076080;28;20044;-77
2023/10/19 12:31:10;;;;;;;32.65;21.60;;;8.80;99.90;;;;;;5097532;28;20080;-77
2023/10/19 12:33:38;;;;;;;27.88;20.55;;;8.50;99.90;;;;;;5073761;28;20052;-77
2023/10/19 12:38:50;;;;;;;26.92;19.45;;;8.50;99.90;;;;;;5088846;28;20082;-76
2023/10/19 12:41:17;;;;;;;31.83;19.20;;;8.40;99.90;;;;;;5095496;28;20040;-78
2023/10/19 12:43:43;;;;;;;31.50;20.15;;;8.50;99.90;;;;;;5066100;28;20048;-77
2023/10/19 12:46:11;;;;;;;28.67;18.75;;;9.10;99.90;;;;;;5079433;28;20048;-77
2023/10/19 12:48:37;;;;;;;27.27;18.42;;;8.40;99.90;;;;;;5070459;28;20044;-77
2023/10/19 12:51:06;;;;;;;24.25;17.38;;;8.50;99.90;;;;;;5098433;28;20161;-78
2023/10/19 12:53:33;;;;;;;29.63;19.20;;;8.30;99.90;;;;;;5097616;28;20043;-77
2023/10/19 12:55:59;;;;;;;25.65;18.17;;;8.40;99.90;;;;;;5101251;28;20048;-77
2023/10/19 12:58:29;;;;;;;29.35;20.20;;;8.80;99.90;;;;;;5092403;28;20046;-77
2023/10/19 13:00:56;;;;;;;25.83;19.25;;;8.40;99.90;;;;;;5076676;28;20083;-79
2023/10/19 13:03:23;;;;;;;22.85;18.80;;;8.40;99.90;;;;;;5109559;28;20064;-77
2023/10/19 13:05:49;;;;;;;33.63;21.25;;;8.40;99.90;;;;;;5076860;28;20501;-76
2023/10/19 13:08:18;;;;;;;24.23;18.25;;;8.40;99.90;;;;;;5102530;28;20508;-78
2023/10/19 13:10:46;;;;;;;25.65;18.00;;;9.40;99.90;;;;;;5085534;28;20048;-78